createdAt,value
2022-10-14T00:03:52.980Z,7.03
2022-10-14T00:07:55.265Z,4.55
2022-10-14T00:11:57.279Z,6.13
2022-10-14T00:15:59.516Z,4.18
2022-10-14T00:20:03.819Z,5.18
2022-10-14T00:24:06.679Z,5.03
2022-10-14T00:28:08.702Z,7.07
2022-10-14T00:32:10.754Z,7.22
2022-10-14T00:36:14.977Z,4.88
2022-10-14T00:40:17.123Z,6.22
2022-10-14T00:44:20.821Z,5.95
2022-10-14T00:48:25.455Z,5.05
2022-10-14T00:52:30.688Z,4.13
2022-10-14T00:56:34.886Z,6.80
2022-10-14T01:00:39.405Z,9.13
2022-10-14T01:04:43.034Z,9.48
2022-10-14T01:09:02.026Z,7.43
2022-10-14T01:13:29.094Z,6.20
2022-10-14T01:17:57.185Z,7.63
2022-10-14T01:22:25.214Z,7.05
2022-10-14T01:27:10.618Z,5.68
2022-10-14T01:31:27.716Z,4.88
2022-10-14T01:36:03.023Z,7.53
2022-10-14T01:40:17.486Z,6.97
2022-10-14T01:44:22.888Z,7.53
2022-10-14T01:48:31.110Z,8.82
2022-10-14T01:52:40.275Z,6.80
2022-10-14T01:56:46.832Z,7.78
2022-10-14T02:00:49.673Z,9.27
2022-10-14T02:04:52.295Z,8.32
2022-10-14T02:09:17.801Z,9.73
2022-10-14T02:13:44.128Z,9.27
2022-10-14T02:18:23.770Z,8.82
2022-10-14T02:22:35.450Z,8.40
2022-10-14T02:26:39.326Z,8.40
2022-10-14T02:30:48.704Z,7.43
2022-10-14T02:34:57.425Z,8.27
2022-10-14T02:39:01.263Z,6.50
2022-10-14T02:43:07.965Z,5.88
2022-10-14T02:47:09.939Z,6.68
2022-10-14T02:51:12.051Z,6.65
2022-10-14T02:55:14.110Z,8.07
2022-10-14T02:59:25.785Z,9.30
2022-10-14T03:03:27.921Z,9.98
2022-10-14T03:07:30.715Z,10.20
2022-10-14T03:11:36.821Z,10.20
2022-10-14T03:15:42.577Z,9.07
2022-10-14T03:19:46.457Z,7.80
2022-10-14T03:23:50.637Z,8.05
2022-10-14T03:27:57.826Z,7.40
2022-10-14T03:32:11.881Z,8.23
2022-10-14T03:36:32.342Z,8.07
2022-10-14T03:40:34.428Z,8.10
2022-10-14T03:44:38.304Z,8.75
2022-10-14T03:53:08.509Z,9.25
2022-10-14T03:57:12.098Z,9.65
2022-10-14T04:01:20.791Z,10.52
2022-10-14T04:05:39.793Z,10.13
2022-10-14T04:09:52.645Z,9.18
2022-10-14T04:13:58.307Z,8.55
2022-10-14T04:18:00.989Z,9.27
2022-10-14T04:22:03.853Z,8.63
2022-10-14T04:26:09.435Z,7.13
2022-10-14T04:30:13.264Z,7.43
2022-10-14T04:34:25.363Z,7.15
2022-10-14T04:38:28.735Z,6.00
2022-10-14T04:42:36.636Z,7.07
2022-10-14T04:46:41.941Z,7.10
2022-10-14T04:50:44.083Z,6.38
2022-10-14T04:55:04.561Z,7.13
2022-10-14T04:59:16.997Z,5.93
2022-10-14T05:03:45.497Z,7.15
2022-10-14T05:07:47.640Z,9.13
2022-10-14T05:11:58.320Z,10.70
2022-10-14T05:16:10.062Z,10.80
2022-10-14T05:20:13.532Z,13.55
2022-10-14T05:24:17.353Z,11.20
2022-10-14T05:28:21.265Z,15.20
2022-10-14T05:32:25.116Z,13.35
2022-10-14T05:36:34.526Z,16.50
2022-10-14T05:40:37.205Z,14.60
2022-10-14T05:44:39.451Z,15.55
2022-10-14T05:48:41.656Z,12.07
2022-10-14T05:52:44.476Z,10.15
2022-10-14T05:56:55.383Z,10.88
2022-10-14T06:01:02.603Z,7.93
2022-10-14T06:05:05.175Z,7.60
2022-10-14T06:09:11.169Z,6.97
2022-10-14T06:13:14.249Z,6.23
2022-10-14T06:17:20.066Z,7.68
2022-10-14T06:21:22.461Z,6.28
2022-10-14T06:25:24.727Z,6.10
2022-10-14T06:29:31.175Z,6.43
2022-10-14T06:33:34.428Z,6.33
2022-10-14T06:37:36.505Z,7.95
2022-10-14T06:41:38.592Z,6.70
2022-10-14T06:45:40.693Z,7.25
2022-10-14T06:49:42.734Z,7.57
2022-10-14T06:53:45.083Z,7.78
2022-10-14T06:57:47.089Z,8.93
2022-10-14T07:01:49.173Z,10.23
2022-10-14T07:05:51.727Z,11.00
2022-10-14T07:09:54.099Z,9.73
2022-10-14T07:13:57.455Z,9.35
2022-10-14T07:17:59.474Z,10.75
2022-10-14T07:22:01.574Z,11.95
2022-10-14T07:26:03.683Z,14.32
2022-10-14T07:30:06.684Z,11.45
2022-10-14T07:34:09.194Z,12.85
2022-10-14T07:38:11.233Z,10.73
2022-10-14T07:42:13.309Z,12.23
2022-10-14T07:46:17.777Z,12.48
2022-10-14T07:50:20.065Z,12.93
2022-10-14T07:54:24.524Z,11.02
2022-10-14T07:58:29.242Z,12.68
2022-10-14T08:02:31.256Z,11.43
2022-10-14T08:06:33.325Z,11.82
2022-10-14T08:10:35.830Z,13.85
2022-10-14T08:14:37.880Z,16.88
2022-10-14T08:18:40.444Z,15.63
2022-10-14T08:22:42.424Z,14.85
2022-10-14T08:26:56.978Z,14.32
2022-10-14T08:30:59.003Z,12.82
2022-10-14T08:35:01.062Z,11.13
2022-10-14T08:39:04.653Z,9.98
2022-10-14T08:43:24.056Z,6.35
2022-10-14T08:47:36.147Z,4.15
2022-10-14T08:51:40.914Z,5.70
2022-10-14T08:55:56.158Z,4.63
2022-10-14T08:59:58.197Z,5.93
2022-10-14T09:04:06.907Z,7.40
2022-10-14T09:08:15.375Z,8.00
2022-10-14T09:12:21.950Z,6.90
2022-10-14T09:16:27.613Z,7.93
2022-10-14T09:20:29.664Z,6.72
2022-10-14T09:24:37.527Z,7.85
2022-10-14T09:28:44.043Z,8.25
2022-10-14T09:32:55.916Z,8.30
2022-10-14T09:37:10.519Z,8.77
2022-10-14T09:41:15.782Z,7.38
2022-10-14T09:45:20.353Z,8.40
2022-10-14T09:49:35.130Z,6.75
2022-10-14T09:53:42.109Z,5.80
2022-10-14T09:57:44.556Z,5.28
2022-10-14T10:01:50.587Z,6.72
2022-10-14T10:06:03.286Z,7.18
2022-10-14T10:10:31.962Z,11.40
2022-10-14T10:14:34.146Z,12.18
2022-10-14T10:18:36.177Z,13.75
2022-10-14T10:22:39.227Z,13.60
2022-10-14T10:26:41.228Z,17.35
2022-10-14T10:31:21.612Z,17.25
2022-10-14T10:35:37.486Z,15.70
2022-10-14T10:40:04.646Z,18.75
2022-10-14T10:44:32.009Z,18.80
2022-10-14T10:48:47.336Z,22.83
2022-10-14T10:53:01.437Z,20.80
2022-10-14T10:57:12.770Z,19.52
2022-10-14T11:01:36.437Z,21.38
2022-10-14T11:05:52.356Z,23.25
2022-10-14T11:10:28.518Z,19.20
2022-10-14T11:15:02.905Z,19.55
2022-10-14T11:19:18.388Z,17.10
2022-10-14T11:24:00.030Z,16.13
2022-10-14T11:28:14.359Z,11.70
2022-10-14T11:32:28.433Z,12.18
2022-10-14T11:37:04.699Z,13.90
2022-10-14T11:41:18.459Z,11.82
2022-10-14T11:45:52.498Z,10.68
2022-10-14T11:50:02.734Z,11.15
2022-10-14T11:54:25.346Z,11.30
2022-10-14T11:58:31.160Z,11.65
2022-10-14T12:02:36.121Z,11.82
2022-10-14T12:07:05.311Z,10.95
2022-10-14T12:11:15.847Z,8.23
2022-10-14T12:15:22.252Z,8.68
2022-10-14T12:19:29.441Z,8.97
2022-10-14T12:23:41.660Z,6.47
2022-10-14T12:27:44.348Z,6.30
2022-10-14T12:32:05.263Z,6.78
2022-10-14T12:36:30.856Z,4.05
2022-10-14T12:40:33.681Z,3.90
2022-10-14T12:44:48.089Z,5.43
2022-10-14T12:48:51.758Z,5.68
2022-10-14T12:53:07.035Z,3.97
2022-10-14T12:57:42.580Z,3.75
2022-10-14T13:01:44.704Z,3.83
2022-10-14T13:05:47.940Z,4.03
2022-10-14T13:09:57.740Z,5.03
2022-10-14T13:14:02.193Z,4.28
2022-10-14T13:18:33.201Z,3.22
2022-10-14T13:22:38.354Z,3.80
2022-10-14T13:26:47.601Z,2.60
2022-10-14T13:30:58.956Z,2.63
2022-10-14T13:35:21.870Z,2.55
2022-10-14T13:39:24.271Z,2.97
2022-10-14T13:43:37.716Z,3.42
2022-10-14T13:47:49.072Z,3.78
2022-10-14T13:51:59.215Z,2.40
2022-10-14T13:56:01.224Z,2.65
2022-10-14T14:00:40.098Z,2.90
2022-10-14T14:04:51.796Z,3.47
2022-10-14T14:09:02.842Z,4.22
2022-10-14T14:13:05.297Z,4.85
2022-10-14T14:17:15.541Z,9.07
2022-10-14T14:21:19.932Z,8.10
2022-10-14T14:25:35.034Z,9.93
2022-10-14T14:29:43.428Z,13.52
2022-10-14T14:33:46.500Z,5.93
2022-10-14T14:37:59.192Z,10.82
2022-10-14T14:42:02.001Z,7.70
2022-10-14T14:46:05.760Z,6.57
2022-10-14T14:50:29.553Z,11.43
2022-10-14T14:54:32.403Z,7.78
2022-10-14T14:58:37.426Z,15.00
2022-10-14T15:02:41.635Z,21.30
2022-10-14T15:07:21.010Z,42.95
2022-10-14T15:11:23.854Z,11.73
2022-10-14T15:15:30.361Z,26.63
2022-10-14T15:19:38.381Z,14.50
2022-10-14T15:23:41.145Z,16.50
2022-10-14T15:27:48.517Z,13.98
2022-10-14T15:32:11.437Z,12.85
2022-10-14T15:36:14.181Z,6.22
2022-10-14T15:40:19.524Z,5.55
2022-10-14T15:44:21.530Z,4.78
2022-10-14T15:48:23.602Z,4.72
2022-10-14T15:52:26.969Z,5.18
2022-10-14T15:56:29.761Z,5.63
2022-10-14T16:00:33.489Z,5.05
2022-10-14T16:04:39.290Z,7.53
2022-10-14T16:08:47.524Z,5.97
2022-10-14T16:12:51.069Z,5.25
2022-10-14T16:16:53.765Z,6.32
2022-10-14T16:20:55.963Z,6.47
2022-10-14T16:24:57.970Z,5.35
2022-10-14T16:29:00.565Z,6.63
2022-10-14T16:33:04.098Z,6.63
2022-10-14T16:37:07.124Z,5.75
2022-10-14T16:41:10.448Z,4.30
2022-10-14T16:45:12.966Z,4.90
2022-10-14T16:49:15.000Z,5.97
2022-10-14T16:53:36.051Z,5.28
2022-10-14T16:57:38.064Z,4.45
2022-10-14T17:01:40.245Z,4.75
2022-10-14T17:05:47.153Z,5.75
2022-10-14T17:09:49.151Z,6.85
2022-10-14T17:13:52.508Z,5.78
2022-10-14T17:17:54.473Z,5.25
2022-10-14T17:21:56.720Z,5.18
2022-10-14T17:25:58.724Z,6.68
2022-10-14T17:30:00.749Z,6.45
2022-10-14T17:34:02.778Z,6.00
2022-10-14T17:38:04.745Z,6.55
2022-10-14T17:42:06.730Z,6.10
2022-10-14T17:46:13.550Z,6.45
2022-10-14T17:50:15.630Z,6.57
2022-10-14T17:54:17.603Z,7.82
2022-10-14T17:58:19.677Z,6.20
2022-10-14T18:02:22.112Z,6.30
2022-10-14T18:06:29.496Z,5.20
2022-10-14T18:14:34.007Z,5.30
2022-10-14T18:18:36.275Z,7.03
2022-10-14T18:22:38.378Z,2.90
2022-10-14T18:26:40.953Z,2.88
2022-10-14T18:30:42.953Z,1.85
2022-10-14T18:34:45.116Z,2.60
2022-10-14T18:38:52.575Z,2.33
2022-10-14T18:42:57.980Z,3.35
2022-10-14T18:47:00.237Z,6.97
2022-10-14T18:51:04.003Z,1.70
2022-10-14T18:55:06.632Z,1.25
2022-10-14T18:59:14.213Z,1.05
2022-10-14T19:03:16.541Z,1.75
2022-10-14T19:07:18.534Z,1.77
2022-10-14T19:11:23.476Z,1.60
2022-10-14T19:15:26.409Z,0.85
2022-10-14T19:19:28.457Z,0.88
2022-10-14T19:23:30.517Z,1.40
2022-10-14T19:27:32.590Z,1.30
2022-10-14T19:31:36.115Z,1.77
2022-10-14T19:35:38.367Z,2.25
2022-10-14T19:39:40.383Z,2.50
2022-10-14T19:43:42.381Z,3.25
2022-10-14T19:47:44.404Z,2.80
2022-10-14T19:51:46.477Z,3.13
2022-10-14T19:55:48.468Z,3.40
2022-10-14T19:59:50.448Z,3.08
2022-10-14T20:03:53.369Z,2.72
2022-10-14T20:07:55.388Z,2.78
2022-10-14T20:11:57.435Z,3.92
2022-10-14T20:16:01.665Z,5.28
2022-10-14T20:20:04.106Z,6.22
2022-10-14T20:24:06.306Z,5.53
2022-10-14T20:28:08.834Z,4.95
2022-10-14T20:32:10.918Z,6.45
2022-10-14T20:36:20.991Z,4.00
2022-10-14T20:40:22.986Z,4.50
2022-10-14T20:44:25.274Z,8.68
2022-10-14T20:48:27.271Z,5.38
2022-10-14T20:52:29.291Z,5.55
2022-10-14T20:56:32.912Z,3.40
2022-10-14T21:00:34.992Z,2.17
2022-10-14T21:04:37.044Z,1.75
2022-10-14T21:08:39.648Z,2.75
2022-10-14T21:12:45.278Z,1.85
2022-10-14T21:16:50.735Z,1.40
2022-10-14T21:29:02.597Z,1.08
2022-10-14T21:33:04.718Z,1.13
2022-10-14T21:37:06.809Z,2.47
2022-10-14T21:41:09.208Z,5.00
2022-10-14T21:45:11.208Z,1.58
2022-10-14T21:49:13.782Z,1.27
2022-10-14T21:53:16.231Z,0.93
2022-10-14T21:57:18.484Z,1.20
2022-10-14T22:01:23.243Z,1.60
2022-10-14T22:05:25.327Z,1.83
2022-10-14T22:09:27.407Z,0.68
2022-10-14T22:13:30.184Z,0.80
2022-10-14T22:17:32.210Z,0.50
2022-10-14T22:21:36.586Z,0.70
2022-10-14T22:25:38.592Z,0.57
2022-10-14T22:29:40.686Z,1.60
2022-10-14T22:33:43.454Z,2.60
2022-10-14T22:37:45.512Z,10.35
2022-10-14T22:41:47.584Z,5.07
2022-10-14T22:45:49.619Z,0.70
2022-10-14T22:49:51.633Z,0.50
2022-10-14T22:53:54.120Z,0.25
2022-10-14T22:57:56.135Z,0.57
2022-10-14T23:01:58.104Z,0.30
2022-10-14T23:06:06.023Z,0.35
2022-10-14T23:10:08.369Z,1.27
2022-10-14T23:14:10.340Z,5.53
2022-10-14T23:18:12.322Z,0.40
2022-10-14T23:22:14.301Z,0.75
2022-10-14T23:26:21.257Z,0.32
2022-10-14T23:30:23.435Z,0.22
2022-10-14T23:34:25.616Z,0.40
2022-10-14T23:38:27.651Z,0.47
2022-10-14T23:42:29.631Z,0.20
2022-10-14T23:46:31.652Z,0.40
2022-10-14T23:50:33.664Z,0.30
2022-10-14T23:54:35.692Z,0.40
2022-10-14T23:58:37.702Z,0.30
